Austin, Arkansas
Current Conditions -  °F | °C
As of 3:04 PM on Sunday 23 Nov 2014 (Local Time) from KLRF Reporting Station
Overcast Overcast  
Wind Chill: 16°   Ceiling: 600
Heat Index: 16°   Visibility: 9mi
Dew Point: 16°   Wind: 5mph
Humidity: 100%   Direction: 190°S
Pressure: 29.35"   Gusts: NA
Location:  35°N, 91.98°W
Report Text: KLRF 232104Z AUTO 19004KT 9SM OVC006 16/16 A2935 RMK AO2
Loading
Personal Weather Stations






























Interactive Weather Map New forecast layout! Learn more

10-Day Weather Forecast

Advertisements
Track Severe Weather on mobile